createdAt,value
2019-02-14T00:02:58.013Z,96.70
2019-02-14T00:07:49.430Z,97.00
2019-02-14T00:12:40.828Z,97.80
2019-02-14T00:17:32.202Z,98.80
2019-02-14T00:22:23.611Z,96.20
2019-02-14T00:27:14.975Z,97.00
2019-02-14T00:32:06.445Z,96.10
2019-02-14T00:36:57.758Z,97.20
2019-02-14T00:41:49.119Z,97.80
2019-02-14T00:46:50.498Z,98.20
2019-02-14T00:51:31.898Z,97.80
2019-02-14T00:56:23.275Z,97.30
2019-02-14T01:01:14.684Z,98.00
2019-02-14T01:06:06.031Z,97.90
2019-02-14T01:10:59.617Z,96.30
2019-02-14T01:15:51.098Z,95.70
2019-02-14T01:20:42.460Z,96.30
2019-02-14T01:25:36.108Z,98.40
2019-02-14T01:30:27.593Z,99.90
2019-02-14T01:35:23.470Z,98.60
2019-02-14T01:40:14.913Z,98.50
2019-02-14T01:45:06.304Z,98.00
2019-02-14T01:49:57.671Z,97.30
2019-02-14T01:54:49.067Z,96.90
2019-02-14T01:59:40.467Z,98.50
2019-02-14T02:04:31.861Z,98.20
2019-02-14T02:09:23.195Z,96.90
2019-02-14T02:14:14.632Z,96.50
2019-02-14T02:19:08.219Z,97.40
2019-02-14T02:24:01.919Z,97.30
2019-02-14T02:28:53.342Z,97.80
2019-02-14T02:33:44.724Z,99.50
2019-02-14T02:38:36.116Z,99.90
2019-02-14T02:43:35.343Z,97.80
2019-02-14T02:48:26.759Z,98.40
2019-02-14T02:53:18.145Z,97.70
2019-02-14T02:58:09.578Z,97.40
2019-02-14T03:03:01.009Z,96.80
2019-02-14T03:07:52.378Z,99.70
2019-02-14T03:12:43.835Z,99.00
2019-02-14T03:17:35.217Z,96.70
2019-02-14T03:22:26.633Z,94.30
2019-02-14T03:27:20.202Z,99.90
2019-02-14T03:32:11.690Z,99.90
2019-02-14T03:37:03.026Z,99.90
2019-02-14T03:41:54.545Z,97.50
2019-02-14T03:46:45.880Z,97.00
2019-02-14T03:51:37.317Z,98.70
2019-02-14T03:56:28.715Z,98.70
2019-02-14T04:01:20.175Z,97.20
2019-02-14T04:06:11.531Z,95.40
2019-02-14T04:11:02.961Z,95.40
2019-02-14T04:15:54.437Z,95.80
2019-02-14T04:20:45.805Z,98.70
2019-02-14T04:25:37.253Z,97.80
2019-02-14T04:30:28.673Z,94.70
2019-02-14T04:35:20.075Z,93.30
2019-02-14T04:40:11.457Z,92.20
2019-02-14T04:45:02.890Z,92.70
2019-02-14T04:49:54.291Z,93.60
2019-02-14T04:54:45.670Z,93.90
2019-02-14T04:59:37.044Z,98.10
2019-02-14T05:04:28.582Z,97.10
2019-02-14T05:09:20.032Z,95.00
2019-02-14T05:14:11.362Z,92.80
2019-02-14T05:19:02.876Z,94.70
2019-02-14T05:28:45.684Z,94.60
2019-02-14T05:33:37.027Z,95.20
2019-02-14T05:38:28.495Z,94.60
2019-02-14T05:43:19.867Z,95.70
2019-02-14T05:48:11.339Z,90.10
2019-02-14T05:53:02.860Z,95.00
2019-02-14T05:57:54.261Z,98.20
2019-02-14T06:02:45.631Z,99.40
2019-02-14T06:07:37.071Z,99.90
2019-02-14T06:12:28.453Z,98.40
2019-02-14T06:17:19.919Z,99.30
2019-02-14T06:22:11.239Z,98.50
2019-02-14T06:27:04.905Z,96.50
2019-02-14T06:31:58.599Z,97.60
2019-02-14T06:36:52.313Z,96.50
2019-02-14T06:41:43.757Z,96.50
2019-02-14T06:46:35.143Z,96.10
2019-02-14T06:51:26.523Z,97.50
2019-02-14T06:56:17.925Z,97.30
2019-02-14T07:01:11.651Z,94.90
2019-02-14T07:06:03.252Z,95.60
2019-02-14T07:10:54.587Z,96.50
2019-02-14T07:15:45.984Z,97.90
2019-02-14T07:20:37.399Z,96.70
2019-02-14T07:25:28.799Z,94.10
2019-02-14T07:30:20.297Z,92.50
2019-02-14T07:35:11.647Z,94.30
2019-02-14T07:40:03.096Z,97.70
2019-02-14T07:44:54.517Z,96.80
2019-02-14T07:49:48.163Z,93.30
2019-02-14T07:54:39.578Z,93.20
2019-02-14T07:59:31.026Z,92.90
2019-02-14T08:04:22.521Z,92.90
2019-02-14T08:09:13.938Z,91.90
2019-02-14T08:14:05.302Z,92.00
2019-02-14T08:18:56.709Z,91.90
2019-02-14T08:23:48.179Z,91.70
2019-02-14T08:28:39.546Z,90.40
2019-02-14T08:33:31.042Z,89.70
2019-02-14T08:38:22.354Z,88.60
2019-02-14T08:43:13.801Z,88.10
2019-02-14T08:48:07.561Z,77.30
2019-02-14T08:52:59.034Z,75.50
2019-02-14T08:57:50.464Z,75.60
2019-02-14T09:02:41.736Z,75.80
2019-02-14T09:07:33.197Z,72.10
2019-02-14T09:12:24.576Z,68.80
2019-02-14T09:17:15.944Z,69.80
2019-02-14T09:22:07.325Z,65.40
2019-02-14T09:27:03.726Z,66.30
2019-02-14T09:31:50.144Z,56.70
2019-02-14T09:36:41.555Z,57.60
2019-02-14T09:41:32.903Z,57.80
2019-02-14T09:46:24.348Z,52.80
2019-02-14T09:51:15.730Z,55.00
2019-02-14T09:56:09.275Z,55.40
2019-02-14T10:01:00.759Z,56.10
2019-02-14T10:05:52.083Z,46.10
2019-02-14T10:10:43.557Z,39.20
2019-02-14T10:15:34.932Z,44.50
2019-02-14T10:20:26.329Z,39.40
2019-02-14T10:25:17.661Z,39.80
2019-02-14T10:30:09.131Z,32.00
2019-02-14T10:35:00.647Z,34.60
2019-02-14T10:39:51.781Z,33.20
2019-02-14T10:44:43.204Z,35.10
2019-02-14T10:49:34.671Z,27.30
2019-02-14T10:54:25.997Z,28.30
2019-02-14T10:59:17.383Z,24.90
2019-02-14T11:04:08.735Z,27.70
2019-02-14T11:09:02.446Z,28.90
2019-02-14T11:13:53.892Z,23.80
2019-02-14T11:18:45.282Z,25.20
2019-02-14T11:23:36.667Z,27.30
2019-02-14T11:28:28.106Z,26.50
2019-02-14T11:33:19.437Z,25.70
2019-02-14T11:38:10.870Z,20.00
2019-02-14T11:43:02.206Z,19.60
2019-02-14T11:47:55.844Z,19.70
2019-02-14T11:52:49.506Z,15.80
2019-02-14T11:57:43.190Z,20.50
2019-02-14T12:02:34.618Z,20.20
2019-02-14T12:07:26.005Z,19.50
2019-02-14T12:12:20.810Z,15.50
2019-02-14T12:17:11.030Z,15.10
2019-02-14T12:22:02.476Z,13.30
2019-02-14T12:26:56.078Z,11.40
2019-02-14T12:31:47.561Z,11.80
2019-02-14T12:36:38.989Z,14.60
2019-02-14T12:41:30.296Z,11.80
2019-02-14T12:46:21.654Z,8.80
2019-02-14T12:51:15.330Z,8.20
2019-02-14T12:56:06.753Z,8.30
2019-02-14T13:00:58.187Z,8.90
2019-02-14T13:05:49.550Z,12.00
2019-02-14T13:10:40.959Z,13.70
2019-02-14T13:15:32.328Z,12.40
2019-02-14T13:20:23.695Z,13.80
2019-02-14T13:25:15.162Z,13.10
2019-02-14T13:30:06.449Z,14.10
2019-02-14T13:35:02.913Z,12.20
2019-02-14T13:39:49.311Z,9.60
2019-02-14T13:44:42.495Z,8.80
2019-02-14T13:49:33.329Z,9.30
2019-02-14T13:54:23.455Z,13.00
2019-02-14T13:59:14.825Z,13.90
2019-02-14T14:04:06.256Z,12.40
2019-02-14T14:08:57.586Z,11.70
2019-02-14T14:13:48.964Z,10.10
2019-02-14T14:18:40.371Z,11.90
2019-02-14T14:23:31.767Z,7.70
2019-02-14T14:28:23.195Z,8.70
2019-02-14T14:33:14.567Z,5.40
2019-02-14T14:38:06.019Z,5.00
2019-02-14T14:42:57.379Z,6.00
2019-02-14T14:47:48.778Z,6.90
2019-02-14T14:52:42.368Z,8.40
2019-02-14T14:57:33.851Z,8.80
2019-02-14T15:02:25.242Z,8.50
2019-02-14T15:12:10.292Z,8.00
2019-02-14T15:17:01.663Z,9.50
2019-02-14T15:21:53.052Z,10.10
2019-02-14T15:26:44.413Z,7.80
2019-02-14T15:31:35.826Z,8.90
2019-02-14T15:36:28.751Z,9.90
2019-02-14T15:41:18.665Z,9.20
2019-02-14T15:46:10.132Z,9.90
2019-02-14T15:51:01.521Z,9.80
2019-02-14T15:55:53.105Z,11.20
2019-02-14T16:00:44.393Z,11.50
2019-02-14T16:05:35.719Z,13.40
2019-02-14T16:10:29.991Z,14.30
2019-02-14T16:15:18.519Z,15.20
2019-02-14T16:20:10.037Z,15.60
2019-02-14T16:25:06.860Z,15.40
2019-02-14T16:29:52.741Z,17.70
2019-02-14T16:34:44.154Z,18.50
2019-02-14T16:39:35.471Z,19.80
2019-02-14T16:44:26.879Z,20.60
2019-02-14T16:49:18.284Z,21.00
2019-02-14T16:54:09.701Z,21.40
2019-02-14T16:59:01.117Z,22.00
2019-02-14T17:03:52.553Z,23.10
2019-02-14T17:08:43.896Z,23.30
2019-02-14T17:13:35.311Z,24.90
2019-02-14T17:18:26.751Z,25.70
2019-02-14T17:23:18.068Z,26.20
2019-02-14T17:28:09.519Z,29.50
2019-02-14T17:33:00.866Z,30.50
2019-02-14T17:37:52.253Z,30.10
2019-02-14T17:42:43.726Z,31.80
2019-02-14T17:47:37.316Z,32.30
2019-02-14T17:52:28.721Z,34.10
2019-02-14T17:57:20.113Z,35.50
2019-02-14T18:02:11.517Z,37.00
2019-02-14T18:07:02.924Z,37.40
2019-02-14T18:11:54.385Z,37.40
2019-02-14T18:16:45.786Z,39.30
2019-02-14T18:21:37.178Z,37.90
2019-02-14T18:26:30.745Z,45.40
2019-02-14T18:31:22.224Z,48.10
2019-02-14T18:36:13.606Z,48.70
2019-02-14T18:41:07.258Z,50.20
2019-02-14T18:45:58.756Z,49.80
2019-02-14T18:50:50.177Z,49.20
2019-02-14T18:55:41.525Z,53.90
2019-02-14T19:00:33.012Z,52.20
2019-02-14T19:05:24.408Z,56.20
2019-02-14T19:10:15.824Z,58.80
2019-02-14T19:15:07.162Z,60.80
2019-02-14T19:19:58.688Z,76.00
2019-02-14T19:24:49.926Z,72.80
2019-02-14T19:29:41.397Z,67.90
2019-02-14T19:34:32.826Z,73.50
2019-02-14T19:39:24.249Z,75.80
2019-02-14T19:44:15.571Z,83.90
2019-02-14T19:49:06.922Z,83.90
2019-02-14T19:53:58.348Z,84.50
2019-02-14T19:58:59.781Z,81.30
2019-02-14T20:03:41.131Z,81.30
2019-02-14T20:08:32.498Z,80.70
2019-02-14T20:13:23.940Z,81.10
2019-02-14T20:18:15.368Z,82.30
2019-02-14T20:23:06.707Z,87.60
2019-02-14T20:27:58.093Z,88.20
2019-02-14T20:32:49.635Z,85.80
2019-02-14T20:37:41.052Z,84.40
2019-02-14T20:42:32.448Z,86.40
2019-02-14T20:47:23.745Z,85.10
2019-02-14T20:52:15.234Z,85.40
2019-02-14T20:57:08.840Z,84.40
2019-02-14T21:02:00.352Z,83.90
2019-02-14T21:06:51.741Z,85.40
2019-02-14T21:11:43.157Z,85.30
2019-02-14T21:16:34.653Z,83.30
2019-02-14T21:21:26.040Z,84.00
2019-02-14T21:26:17.472Z,84.90
2019-02-14T21:31:11.158Z,85.60
2019-02-14T21:36:02.665Z,85.80
2019-02-14T21:40:56.193Z,84.30
2019-02-14T21:45:47.706Z,87.50
2019-02-14T21:50:39.137Z,88.20
2019-02-14T21:55:30.476Z,88.70
2019-02-14T22:00:21.822Z,88.30
2019-02-14T22:05:15.445Z,89.40
2019-02-14T22:10:06.968Z,89.10
2019-02-14T22:14:58.220Z,91.50
2019-02-14T22:19:49.713Z,91.40
2019-02-14T22:24:41.098Z,91.60
2019-02-14T22:29:32.523Z,90.30
2019-02-14T22:34:23.882Z,90.30
2019-02-14T22:39:15.268Z,90.80
2019-02-14T22:44:06.666Z,89.70
2019-02-14T22:49:00.334Z,90.30
2019-02-14T22:53:53.972Z,89.70
2019-02-14T22:58:45.475Z,90.40
2019-02-14T23:03:39.039Z,92.10
2019-02-14T23:08:30.487Z,90.20
2019-02-14T23:13:21.836Z,91.40
2019-02-14T23:18:13.268Z,92.10
2019-02-14T23:23:04.694Z,94.00
2019-02-14T23:27:56.098Z,93.40
2019-02-14T23:32:49.763Z,97.40
2019-02-14T23:37:43.446Z,95.10
2019-02-14T23:42:34.875Z,93.70
2019-02-14T23:47:26.244Z,92.00
2019-02-14T23:57:08.977Z,93.20
